メインページ
METAR-TAF:

METAR-TAF

空港 :

福島空港

郡山, 日本

緯度: 37-24N, 経度: 140-23E, 海抜: 372m

現時点の気象観測

当レポートは1時間1分前の11:00(UTC)に作成
北東の風 4kt
気温 13°C
湿度 67%
気圧 1020 hPa
視程10km以上
高度2500ftの雲はほとんどない
雲は散在している

METAR: RJSF 201100Z 04004KT 9999 FEW025 SCT/// 13/07 Q1020

時間: 21:01 (12:01 UTC)

予報

当レポートは56分前の11:05(UTC)に作成
予報は20日の 12時(UTC)から 21日の 18時(UTC)まで有効
の風 5kt
視程10km以上
高度3000ftの雲はほとんどない
21日の 06時(UTC)から 21日の 09時(UTC)まで徐々に
南東の風 4kt

TAF: RJSF 201105Z 2012/2118 36005KT 9999 FEW030 BECMG 2106/2109 14004KT

4,000以上の空港の気象観測と天気予報(METAR報とTAF報)

利用可能な観測所は地図上に黄色い丸と赤い丸で示す。

丸の上にカーソルを重ねると観測所名を参照できる。

次にクリックすると気象観測と天気予報を参照できる。

マップの切り替え:黒色「×」印の緑ボタンをクリックして拡大、「-」印の緑ボタンをクリックして縮小、緑色の三角印をクリックして隣りの地図に切り替え


METAR-TAF: